createdAt,value
2017-12-26T00:02:17.966Z,2.60
2017-12-26T00:04:46.981Z,2.60
2017-12-26T00:07:16.815Z,2.60
2017-12-26T00:09:45.306Z,2.60
2017-12-26T00:12:13.611Z,2.50
2017-12-26T00:14:41.862Z,2.50
2017-12-26T00:17:10.235Z,2.50
2017-12-26T00:19:38.506Z,2.50
2017-12-26T00:22:06.750Z,2.50
2017-12-26T00:24:35.027Z,2.40
2017-12-26T00:27:04.046Z,2.40
2017-12-26T00:29:32.294Z,2.30
2017-12-26T00:32:01.650Z,2.30
2017-12-26T00:34:29.898Z,2.30
2017-12-26T00:36:58.382Z,2.30
2017-12-26T00:39:27.111Z,2.30
2017-12-26T00:41:55.362Z,2.30
2017-12-26T00:44:23.602Z,2.30
2017-12-26T00:46:51.884Z,2.30
2017-12-26T00:49:20.178Z,2.30
2017-12-26T00:51:48.513Z,2.30
2017-12-26T00:54:16.866Z,2.30
2017-12-26T00:56:45.113Z,2.30
2017-12-26T00:59:13.362Z,2.30
2017-12-26T01:01:41.638Z,2.30
2017-12-26T01:04:10.709Z,2.30
2017-12-26T01:06:38.946Z,2.30
2017-12-26T01:09:07.756Z,2.30
2017-12-26T01:11:35.990Z,2.30
2017-12-26T01:14:04.266Z,2.30
2017-12-26T01:16:32.784Z,2.30
2017-12-26T01:19:01.041Z,2.30
2017-12-26T01:21:29.283Z,2.30
2017-12-26T01:23:58.325Z,2.40
2017-12-26T01:26:26.562Z,2.40
2017-12-26T01:28:55.582Z,2.20
2017-12-26T01:31:23.901Z,2.20
2017-12-26T01:33:52.098Z,2.20
2017-12-26T01:36:21.266Z,2.20
2017-12-26T01:38:49.875Z,2.10
2017-12-26T01:41:18.343Z,2.10
2017-12-26T01:43:46.591Z,2.10
2017-12-26T01:46:23.676Z,2.10
2017-12-26T01:48:51.926Z,2.00
2017-12-26T01:51:21.374Z,2.00
2017-12-26T01:53:49.653Z,2.00
2017-12-26T01:56:17.907Z,2.00
2017-12-26T01:58:46.200Z,2.00
2017-12-26T02:01:15.434Z,1.90
2017-12-26T02:03:43.679Z,1.90
2017-12-26T02:06:11.954Z,1.90
2017-12-26T02:08:40.394Z,1.80
2017-12-26T02:11:10.942Z,1.80
2017-12-26T02:13:39.179Z,1.80
2017-12-26T02:16:07.450Z,1.90
2017-12-26T02:18:36.466Z,1.80
2017-12-26T02:21:04.715Z,1.80
2017-12-26T02:23:33.826Z,1.80
2017-12-26T02:26:02.070Z,1.80
2017-12-26T02:28:30.323Z,1.80
2017-12-26T02:30:58.623Z,1.80
2017-12-26T02:33:26.869Z,1.80
2017-12-26T02:35:55.115Z,1.80
2017-12-26T02:38:23.386Z,1.80
2017-12-26T02:40:53.574Z,1.80
2017-12-26T02:43:21.818Z,1.70
2017-12-26T02:45:50.158Z,1.70
2017-12-26T02:48:19.171Z,1.70
2017-12-26T02:50:47.425Z,1.70
2017-12-26T02:53:16.463Z,1.70
2017-12-26T02:55:44.762Z,1.70
2017-12-26T02:58:13.014Z,1.70
2017-12-26T03:00:41.286Z,1.70
2017-12-26T03:03:09.530Z,1.70
2017-12-26T03:05:37.853Z,1.60
2017-12-26T03:08:06.974Z,1.60
2017-12-26T03:10:35.350Z,1.60
2017-12-26T03:13:04.038Z,1.70
2017-12-26T03:15:32.306Z,1.60
2017-12-26T03:18:00.566Z,1.60
2017-12-26T03:20:28.822Z,1.60
2017-12-26T03:22:57.086Z,1.60
2017-12-26T03:25:25.339Z,1.60
2017-12-26T03:27:54.354Z,1.60
2017-12-26T03:30:22.839Z,1.60
2017-12-26T03:32:51.260Z,1.60
2017-12-26T03:35:19.482Z,1.50
2017-12-26T03:37:48.524Z,1.50
2017-12-26T03:40:16.774Z,1.50
2017-12-26T03:42:45.036Z,1.50
2017-12-26T03:45:14.218Z,1.50
2017-12-26T03:47:43.234Z,1.50
2017-12-26T03:50:11.493Z,1.50
2017-12-26T03:52:40.591Z,1.50
2017-12-26T03:55:09.611Z,1.50
2017-12-26T03:57:37.881Z,1.50
2017-12-26T04:00:06.163Z,1.50
2017-12-26T04:02:34.429Z,1.50
2017-12-26T04:05:02.766Z,1.50
2017-12-26T04:07:31.047Z,1.50
2017-12-26T04:09:59.518Z,1.50
2017-12-26T04:12:27.898Z,1.50
2017-12-26T04:14:57.095Z,1.50
2017-12-26T04:17:25.337Z,1.50
2017-12-26T04:19:53.654Z,1.50
2017-12-26T04:22:21.935Z,1.50
2017-12-26T04:24:50.178Z,1.50
2017-12-26T04:27:18.434Z,1.40
2017-12-26T04:29:46.713Z,1.40
2017-12-26T04:32:14.970Z,1.40
2017-12-26T04:34:44.266Z,1.50
2017-12-26T04:37:13.394Z,1.40
2017-12-26T04:39:41.638Z,1.40
2017-12-26T04:42:10.662Z,1.40
2017-12-26T04:44:38.930Z,1.40
2017-12-26T04:47:07.216Z,1.40
2017-12-26T04:49:35.486Z,1.30
2017-12-26T04:52:03.762Z,1.30
2017-12-26T04:54:32.194Z,1.30
2017-12-26T04:57:00.442Z,1.30
2017-12-26T04:59:30.062Z,1.20
2017-12-26T05:01:58.298Z,1.30
2017-12-26T05:04:26.586Z,1.20
2017-12-26T05:06:54.982Z,1.20
2017-12-26T05:09:25.230Z,1.20
2017-12-26T05:11:53.669Z,1.20
2017-12-26T05:14:22.015Z,1.20
2017-12-26T05:16:51.214Z,1.20
2017-12-26T05:19:19.457Z,1.20
2017-12-26T05:21:47.814Z,1.20
2017-12-26T05:24:16.122Z,1.20
2017-12-26T05:26:44.370Z,1.10
2017-12-26T05:29:12.779Z,1.10
2017-12-26T05:31:41.034Z,1.20
2017-12-26T05:34:09.278Z,1.10
2017-12-26T05:36:37.742Z,1.10
2017-12-26T05:39:06.758Z,1.10
2017-12-26T05:41:35.058Z,1.10
2017-12-26T05:44:03.422Z,1.10
2017-12-26T05:46:31.666Z,1.10
2017-12-26T05:49:00.686Z,1.10
2017-12-26T05:51:28.957Z,1.10
2017-12-26T05:53:57.231Z,1.10
2017-12-26T05:56:25.666Z,1.10
2017-12-26T05:58:53.942Z,1.10
2017-12-26T06:01:22.204Z,1.00
2017-12-26T06:03:50.494Z,1.00
2017-12-26T06:06:18.979Z,1.10
2017-12-26T06:08:47.302Z,1.00
2017-12-26T06:11:15.534Z,1.00
2017-12-26T06:13:43.875Z,1.00
2017-12-26T06:16:12.123Z,1.00
2017-12-26T06:18:41.229Z,1.00
2017-12-26T06:21:10.710Z,1.00
2017-12-26T06:23:39.738Z,1.00
2017-12-26T06:26:11.510Z,1.00
2017-12-26T06:28:39.771Z,1.00
2017-12-26T06:31:08.023Z,1.00
2017-12-26T06:33:37.225Z,0.90
2017-12-26T06:36:06.277Z,0.90
2017-12-26T06:38:34.518Z,0.90
2017-12-26T06:41:02.971Z,0.90
2017-12-26T06:43:32.070Z,0.90
2017-12-26T06:46:01.082Z,0.90
2017-12-26T06:48:31.043Z,0.80
2017-12-26T06:50:59.286Z,0.90
2017-12-26T06:53:27.534Z,0.90
2017-12-26T06:55:57.885Z,0.80
2017-12-26T06:58:26.194Z,0.80
2017-12-26T07:00:54.446Z,0.80
2017-12-26T07:03:22.718Z,0.80
2017-12-26T07:05:53.194Z,0.80
2017-12-26T07:08:23.842Z,0.80
2017-12-26T07:10:52.912Z,0.80
2017-12-26T07:13:22.324Z,0.80
2017-12-26T07:15:50.595Z,0.80
2017-12-26T07:18:18.861Z,0.80
2017-12-26T07:20:52.871Z,0.80
2017-12-26T07:23:21.094Z,0.80
2017-12-26T07:25:50.111Z,0.80
2017-12-26T07:28:18.813Z,0.80
2017-12-26T07:30:47.071Z,0.80
2017-12-26T07:33:15.358Z,1.00
2017-12-26T07:35:43.626Z,1.10
2017-12-26T07:38:11.894Z,1.20
2017-12-26T07:40:40.326Z,1.30
2017-12-26T07:43:08.638Z,1.30
2017-12-26T07:45:37.074Z,1.40
2017-12-26T07:48:05.318Z,1.20
2017-12-26T07:50:33.671Z,1.10
2017-12-26T07:53:01.905Z,1.00
2017-12-26T07:55:30.146Z,0.90
2017-12-26T07:57:58.561Z,0.90
2017-12-26T08:00:27.594Z,1.10
2017-12-26T08:02:55.847Z,1.10
2017-12-26T08:05:24.150Z,1.10
2017-12-26T08:07:53.170Z,1.20
2017-12-26T08:10:21.427Z,1.20
2017-12-26T08:12:50.238Z,1.10
2017-12-26T08:15:18.493Z,1.00
2017-12-26T08:17:47.506Z,1.00
2017-12-26T08:20:15.786Z,1.00
2017-12-26T08:22:44.502Z,1.10
2017-12-26T08:25:12.723Z,1.10
2017-12-26T08:27:41.758Z,1.30
2017-12-26T08:30:10.012Z,1.30
2017-12-26T08:32:38.262Z,1.30
2017-12-26T08:35:07.438Z,1.50
2017-12-26T08:37:35.682Z,1.40
2017-12-26T08:40:03.946Z,1.60
2017-12-26T08:42:32.238Z,1.80
2017-12-26T08:45:00.643Z,1.90
2017-12-26T08:47:29.946Z,1.90
2017-12-26T08:49:59.383Z,1.80
2017-12-26T08:52:28.860Z,1.60
2017-12-26T08:54:57.135Z,1.70
2017-12-26T08:57:25.686Z,1.70
2017-12-26T08:59:53.946Z,1.80
2017-12-26T09:02:22.375Z,1.90
2017-12-26T09:04:53.854Z,2.00
2017-12-26T09:07:22.878Z,2.50
2017-12-26T09:09:52.118Z,2.40
2017-12-26T09:12:20.674Z,2.70
2017-12-26T09:14:51.030Z,2.90
2017-12-26T09:17:19.311Z,3.00
2017-12-26T09:19:47.876Z,3.20
2017-12-26T09:22:16.123Z,3.30
2017-12-26T09:24:44.558Z,3.50
2017-12-26T09:27:12.958Z,3.70
2017-12-26T09:29:41.977Z,4.10
2017-12-26T09:32:10.226Z,4.10
2017-12-26T09:34:38.705Z,4.30
2017-12-26T09:37:07.727Z,4.70
2017-12-26T09:39:36.974Z,4.70
2017-12-26T09:42:05.734Z,4.70
2017-12-26T09:44:34.035Z,4.40
2017-12-26T09:47:03.334Z,4.20
2017-12-26T09:49:35.434Z,4.00
2017-12-26T09:52:04.562Z,3.80
2017-12-26T09:54:32.809Z,3.80
2017-12-26T09:57:02.106Z,3.70
2017-12-26T09:59:31.126Z,3.70
2017-12-26T10:01:59.450Z,3.70
2017-12-26T10:04:27.782Z,3.70
2017-12-26T10:06:56.034Z,3.80
2017-12-26T10:09:24.294Z,4.10
2017-12-26T10:11:52.677Z,4.40
2017-12-26T10:14:21.079Z,4.70
2017-12-26T10:16:50.086Z,5.60
2017-12-26T10:19:18.366Z,5.60
2017-12-26T10:21:46.798Z,5.90
2017-12-26T10:24:15.668Z,6.00
2017-12-26T10:26:45.187Z,5.90
2017-12-26T10:29:15.650Z,5.70
2017-12-26T10:31:43.942Z,5.30
2017-12-26T10:34:12.403Z,4.90
2017-12-26T10:36:41.436Z,4.50
2017-12-26T10:39:10.383Z,4.50
2017-12-26T10:41:38.774Z,4.40
2017-12-26T10:44:07.821Z,4.30
2017-12-26T10:46:36.111Z,4.30
2017-12-26T10:49:04.613Z,4.20
2017-12-26T10:51:32.866Z,4.10
2017-12-26T10:54:01.254Z,4.20
2017-12-26T10:56:29.661Z,4.30
2017-12-26T10:58:58.722Z,4.60
2017-12-26T11:01:27.958Z,4.60
2017-12-26T11:03:57.040Z,4.70
2017-12-26T11:06:25.448Z,4.60
2017-12-26T11:08:53.678Z,4.60
2017-12-26T11:11:23.196Z,4.50
2017-12-26T11:13:54.119Z,4.40
2017-12-26T11:16:22.530Z,4.40
2017-12-26T11:18:51.583Z,4.30
2017-12-26T11:21:20.571Z,4.30
2017-12-26T11:23:48.899Z,4.30
2017-12-26T11:26:18.506Z,4.40
2017-12-26T11:28:47.771Z,4.40
2017-12-26T11:31:16.022Z,4.40
2017-12-26T11:33:44.359Z,4.50
2017-12-26T11:36:12.606Z,4.50
2017-12-26T11:38:41.035Z,4.50
2017-12-26T11:41:09.419Z,4.50
2017-12-26T11:43:38.663Z,4.60
2017-12-26T11:46:07.042Z,4.60
2017-12-26T11:48:35.667Z,4.60
2017-12-26T11:51:03.979Z,4.70
2017-12-26T11:53:33.406Z,4.90
2017-12-26T11:56:03.732Z,5.20
2017-12-26T11:58:32.335Z,5.80
2017-12-26T12:01:00.616Z,6.30
2017-12-26T12:03:28.903Z,6.70
2017-12-26T12:06:02.063Z,7.60
2017-12-26T12:08:30.347Z,7.60
2017-12-26T12:10:58.818Z,8.00
2017-12-26T12:13:27.262Z,8.20
2017-12-26T12:15:55.654Z,8.20
2017-12-26T12:18:23.995Z,8.20
2017-12-26T12:20:54.186Z,8.30
2017-12-26T12:23:23.533Z,8.20
2017-12-26T12:25:52.532Z,8.40
2017-12-26T12:28:21.131Z,8.40
2017-12-26T12:30:49.570Z,8.60
2017-12-26T12:33:18.639Z,9.40
2017-12-26T12:35:46.911Z,9.40
2017-12-26T12:38:16.407Z,9.40
2017-12-26T12:40:46.738Z,9.30
2017-12-26T12:43:14.975Z,9.20
2017-12-26T12:45:43.258Z,9.00
2017-12-26T12:48:11.767Z,9.00
2017-12-26T12:50:40.907Z,8.90
2017-12-26T12:53:09.935Z,8.80
2017-12-26T12:55:38.174Z,8.80
2017-12-26T12:58:06.419Z,8.80
2017-12-26T13:00:34.935Z,8.70
2017-12-26T13:03:03.179Z,8.70
2017-12-26T13:05:31.459Z,8.70
2017-12-26T13:07:59.867Z,8.70
2017-12-26T13:10:34.971Z,8.60
2017-12-26T13:13:03.255Z,8.60
2017-12-26T13:15:31.514Z,8.60
2017-12-26T13:17:59.802Z,8.60
2017-12-26T13:20:28.117Z,8.50
2017-12-26T13:22:56.567Z,8.40
2017-12-26T13:25:24.963Z,8.40
2017-12-26T13:27:53.226Z,8.40
2017-12-26T13:30:21.483Z,8.30
2017-12-26T13:32:49.771Z,8.20
2017-12-26T13:35:18.310Z,8.20
2017-12-26T13:37:46.671Z,8.10
2017-12-26T13:40:14.911Z,8.00
2017-12-26T13:42:43.687Z,7.90
2017-12-26T13:45:11.976Z,7.90
2017-12-26T13:47:40.343Z,7.90
2017-12-26T13:50:08.602Z,7.80
2017-12-26T13:52:38.034Z,7.90
2017-12-26T13:55:06.304Z,7.90
2017-12-26T13:57:34.546Z,7.90
2017-12-26T14:00:02.797Z,7.90
2017-12-26T14:02:31.038Z,8.00
2017-12-26T14:04:59.698Z,8.10
2017-12-26T14:07:28.006Z,8.10
2017-12-26T14:09:56.382Z,8.30
2017-12-26T14:12:24.872Z,8.30
2017-12-26T14:14:54.370Z,8.30
2017-12-26T14:17:22.769Z,8.20
2017-12-26T14:19:51.324Z,8.20
2017-12-26T14:22:19.544Z,8.10
2017-12-26T14:24:48.562Z,8.10
2017-12-26T14:27:18.183Z,8.10
2017-12-26T14:29:47.442Z,8.00
2017-12-26T14:32:16.799Z,8.00
2017-12-26T14:34:45.063Z,8.00
2017-12-26T14:37:13.314Z,8.00
2017-12-26T14:39:41.546Z,8.00
2017-12-26T14:42:09.950Z,7.80
2017-12-26T14:44:38.950Z,7.80
2017-12-26T14:47:07.961Z,7.70
2017-12-26T14:49:36.793Z,7.80
2017-12-26T14:52:05.011Z,7.70
2017-12-26T14:54:34.014Z,7.70
2017-12-26T14:57:02.380Z,7.70
2017-12-26T14:59:31.387Z,7.60
2017-12-26T15:01:59.619Z,7.60
2017-12-26T15:04:27.894Z,7.60
2017-12-26T15:06:58.336Z,7.50
2017-12-26T15:09:26.716Z,7.50
2017-12-26T15:11:55.186Z,7.50
2017-12-26T15:14:23.445Z,7.40
2017-12-26T15:16:51.838Z,7.40
2017-12-26T15:19:20.107Z,7.40
2017-12-26T15:21:48.382Z,7.40
2017-12-26T15:24:16.598Z,7.30
2017-12-26T15:26:44.879Z,7.30
2017-12-26T15:29:14.353Z,7.20
2017-12-26T15:31:42.582Z,7.00
2017-12-26T15:34:10.893Z,7.10
2017-12-26T15:36:39.135Z,7.00
2017-12-26T15:39:07.562Z,7.10
2017-12-26T15:41:35.827Z,7.00
2017-12-26T15:44:04.066Z,7.00
2017-12-26T15:46:32.567Z,6.90
2017-12-26T15:49:00.807Z,6.90
2017-12-26T15:51:29.857Z,6.80
2017-12-26T15:53:58.074Z,6.80
2017-12-26T15:56:26.682Z,6.60
2017-12-26T15:58:54.931Z,6.70
2017-12-26T16:01:23.931Z,6.60
2017-12-26T16:03:55.380Z,6.60
2017-12-26T16:06:24.378Z,6.70
2017-12-26T16:08:53.394Z,6.80
2017-12-26T16:11:23.942Z,6.80
2017-12-26T16:13:53.366Z,6.90
2017-12-26T16:16:21.603Z,6.90
2017-12-26T16:18:50.009Z,7.00
2017-12-26T16:21:18.264Z,6.90
2017-12-26T16:23:47.602Z,7.00
2017-12-26T16:26:16.006Z,7.00
2017-12-26T16:28:45.011Z,7.00
2017-12-26T16:31:14.026Z,7.00
2017-12-26T16:33:42.482Z,7.00
2017-12-26T16:36:17.382Z,6.90
2017-12-26T16:38:45.785Z,6.90
2017-12-26T16:41:14.038Z,6.90
2017-12-26T16:43:42.307Z,6.90
2017-12-26T16:46:10.567Z,6.80
2017-12-26T16:48:38.802Z,6.70
2017-12-26T16:51:07.819Z,6.40
2017-12-26T16:53:36.419Z,6.40
2017-12-26T16:56:04.657Z,6.40
2017-12-26T16:58:33.657Z,6.50
2017-12-26T17:01:02.894Z,6.60
2017-12-26T17:03:31.128Z,6.60
2017-12-26T17:05:59.372Z,6.60
2017-12-26T17:08:27.632Z,6.70
2017-12-26T17:10:55.883Z,6.70
2017-12-26T17:13:24.131Z,6.70
2017-12-26T17:15:53.167Z,6.70
2017-12-26T17:18:21.403Z,6.70
2017-12-26T17:20:49.646Z,6.80
2017-12-26T17:23:17.953Z,6.80
2017-12-26T17:25:46.960Z,6.70
2017-12-26T17:28:15.193Z,6.70
2017-12-26T17:30:43.450Z,6.60
2017-12-26T17:33:11.693Z,6.70
2017-12-26T17:35:40.587Z,6.60
2017-12-26T17:38:08.837Z,6.50
2017-12-26T17:40:37.839Z,6.40
2017-12-26T17:43:06.854Z,6.40
2017-12-26T17:45:35.662Z,6.50
2017-12-26T17:48:03.898Z,6.30
2017-12-26T17:50:32.908Z,6.40
2017-12-26T17:53:01.175Z,6.40
2017-12-26T17:55:29.406Z,6.30
2017-12-26T17:57:57.642Z,6.20
2017-12-26T18:00:25.910Z,6.10
2017-12-26T18:02:54.150Z,6.20
2017-12-26T18:05:23.498Z,6.20
2017-12-26T18:07:51.829Z,6.30
2017-12-26T18:10:20.198Z,6.50
2017-12-26T18:12:48.438Z,6.60
2017-12-26T18:15:16.706Z,6.60
2017-12-26T18:17:44.955Z,6.50
2017-12-26T18:20:13.197Z,6.50
2017-12-26T18:22:41.449Z,6.50
2017-12-26T18:25:09.683Z,6.50
2017-12-26T18:27:38.702Z,6.50
2017-12-26T18:30:07.253Z,6.50
2017-12-26T18:32:35.485Z,6.50
2017-12-26T18:35:03.725Z,6.60
2017-12-26T18:37:32.757Z,6.60
2017-12-26T18:40:00.993Z,6.60
2017-12-26T18:42:29.427Z,6.70
2017-12-26T18:44:57.693Z,6.60
2017-12-26T18:47:25.925Z,6.60
2017-12-26T18:49:54.937Z,6.50
2017-12-26T18:52:23.297Z,6.50
2017-12-26T18:54:53.474Z,6.50
2017-12-26T18:57:21.745Z,6.50
2017-12-26T18:59:49.986Z,6.40
2017-12-26T19:02:18.234Z,6.30
2017-12-26T19:04:46.465Z,6.20
2017-12-26T19:07:14.777Z,6.20
2017-12-26T19:09:43.024Z,6.30
2017-12-26T19:12:11.277Z,6.30
2017-12-26T19:14:40.505Z,6.20
2017-12-26T19:17:08.726Z,6.20
2017-12-26T19:19:37.734Z,6.20
2017-12-26T19:22:06.298Z,6.20
2017-12-26T19:24:35.301Z,6.10
2017-12-26T19:27:04.305Z,6.10
2017-12-26T19:29:32.565Z,6.10
2017-12-26T19:32:00.807Z,6.10
2017-12-26T19:34:29.085Z,6.10
2017-12-26T19:36:57.529Z,6.10
2017-12-26T19:39:25.977Z,6.20
2017-12-26T19:41:54.985Z,6.20
2017-12-26T19:44:24.029Z,6.10
2017-12-26T19:46:52.246Z,6.10
2017-12-26T19:49:21.265Z,6.00
2017-12-26T19:51:49.541Z,6.00
2017-12-26T19:54:17.761Z,6.00
2017-12-26T19:56:45.999Z,5.90
2017-12-26T19:59:14.345Z,5.80
2017-12-26T20:01:42.793Z,5.80
2017-12-26T20:04:11.089Z,5.70
2017-12-26T20:06:39.314Z,5.70
2017-12-26T20:09:11.613Z,5.60
2017-12-26T20:11:39.869Z,5.50
2017-12-26T20:14:08.106Z,5.50
2017-12-26T20:16:37.358Z,5.50
2017-12-26T20:19:05.938Z,5.40
2017-12-26T20:21:34.166Z,5.50
2017-12-26T20:24:03.302Z,5.50
2017-12-26T20:26:31.881Z,5.50
2017-12-26T20:29:00.117Z,5.50
2017-12-26T20:31:28.555Z,5.50
2017-12-26T20:33:56.833Z,5.50
2017-12-26T20:36:25.062Z,5.50
2017-12-26T20:38:54.066Z,5.40
2017-12-26T20:41:22.805Z,5.40
2017-12-26T20:43:51.041Z,5.40
2017-12-26T20:46:19.287Z,5.50
2017-12-26T20:48:48.314Z,5.40
2017-12-26T20:51:16.558Z,5.40
2017-12-26T20:53:45.578Z,5.30
2017-12-26T20:56:13.838Z,5.30
2017-12-26T20:58:42.073Z,5.20
2017-12-26T21:01:10.310Z,5.20
2017-12-26T21:03:38.806Z,5.10
2017-12-26T21:06:07.107Z,5.10
2017-12-26T21:08:35.341Z,5.10
2017-12-26T21:11:03.614Z,5.10
2017-12-26T21:13:31.859Z,5.10
2017-12-26T21:16:00.098Z,5.20
2017-12-26T21:18:28.358Z,5.10
2017-12-26T21:20:56.930Z,5.10
2017-12-26T21:23:25.910Z,5.10
2017-12-26T21:25:54.230Z,5.10
2017-12-26T21:28:22.470Z,5.10
2017-12-26T21:30:50.713Z,5.20
2017-12-26T21:33:18.973Z,5.20
2017-12-26T21:35:47.347Z,5.10
2017-12-26T21:38:15.581Z,5.10
2017-12-26T21:40:43.851Z,5.00
2017-12-26T21:43:13.002Z,4.90
2017-12-26T21:45:41.246Z,4.90
2017-12-26T21:48:09.658Z,4.80
2017-12-26T21:50:38.026Z,4.70
2017-12-26T21:53:06.246Z,4.70
2017-12-26T21:55:34.509Z,4.60
2017-12-26T21:58:03.514Z,4.50
2017-12-26T22:00:32.526Z,4.50
2017-12-26T22:03:00.786Z,4.50
2017-12-26T22:05:29.796Z,4.50
2017-12-26T22:07:59.043Z,4.50
2017-12-26T22:10:27.365Z,4.50
2017-12-26T22:12:55.610Z,4.40
2017-12-26T22:15:23.850Z,4.40
2017-12-26T22:17:52.109Z,4.40
2017-12-26T22:20:20.350Z,4.30
2017-12-26T22:22:49.358Z,4.30
2017-12-26T22:25:18.389Z,4.30
2017-12-26T22:27:51.598Z,4.30
2017-12-26T22:30:20.153Z,4.30
2017-12-26T22:32:48.389Z,4.30
2017-12-26T22:35:16.882Z,4.30
2017-12-26T22:37:45.905Z,4.40
2017-12-26T22:40:14.150Z,4.30
2017-12-26T22:42:43.153Z,4.50
2017-12-26T22:45:12.280Z,4.40
2017-12-26T22:47:40.522Z,4.40
2017-12-26T22:50:08.759Z,4.40
2017-12-26T22:52:37.314Z,4.50
2017-12-26T22:55:06.545Z,4.50
2017-12-26T22:57:34.786Z,4.50
2017-12-26T23:00:03.050Z,4.50
2017-12-26T23:02:31.285Z,4.50
2017-12-26T23:04:59.522Z,4.50
2017-12-26T23:07:27.846Z,4.50
2017-12-26T23:09:56.088Z,4.50
2017-12-26T23:12:24.321Z,4.40
2017-12-26T23:14:58.434Z,4.40
2017-12-26T23:17:32.403Z,4.40
2017-12-26T23:20:06.506Z,4.40
2017-12-26T23:22:34.747Z,4.40
2017-12-26T23:25:08.673Z,4.40
2017-12-26T23:27:42.529Z,4.40
2017-12-26T23:30:16.801Z,4.40
2017-12-26T23:32:50.722Z,4.40
2017-12-26T23:35:24.549Z,4.30
2017-12-26T23:37:58.352Z,4.30
2017-12-26T23:40:32.382Z,4.30
2017-12-26T23:43:06.322Z,4.20
2017-12-26T23:45:40.865Z,4.30
2017-12-26T23:48:14.622Z,4.20
2017-12-26T23:50:48.586Z,4.20
2017-12-26T23:53:22.565Z,4.20
2017-12-26T23:55:57.165Z,4.10
2017-12-26T23:58:30.993Z,4.10
